Time;durP1;ratioP1;P1;durP2;ratioP2;P2;SDS_P1;SDS_P2;PMS_P1;PMS_P2;Temp;Humidity;BMP_temperature;BMP_pressure;BME280_temperature;BME280_humidity;BME280_pressure;Samples;Min_cycle;Max_cycle;Signal;HPM_P1;HPM_P2
2021/11/07 00:05:30;;;;;;;12.55;8.63;;;;;;;7.68;100.00;100940.81;5013553;28;20124;-58
2021/11/07 00:08:13;;;;;;;11.88;8.10;;;;;;;7.73;100.00;100933.38;5015951;28;20038;-57
2021/11/07 00:10:43;;;;;;;12.23;8.38;;;;;;;7.68;100.00;100919.56;5014215;28;20072;-59
2021/11/07 00:13:17;;;;;;;10.32;7.53;;;;;;;7.74;100.00;100922.34;5014801;28;20486;-59
2021/11/07 00:15:43;;;;;;;9.20;7.43;;;;;;;7.76;100.00;100915.63;5017202;28;20128;-59
2021/11/07 00:18:15;;;;;;;10.43;7.38;;;;;;;7.65;100.00;100907.56;5013888;28;20141;-58
2021/11/07 00:20:52;;;;;;;12.02;8.02;;;;;;;7.76;100.00;100903.75;5015520;28;20042;-59
2021/11/07 00:23:32;;;;;;;9.07;7.88;;;;;;;7.70;100.00;100902.66;5016824;28;20069;-54
2021/11/07 00:26:15;;;;;;;8.95;7.30;;;;;;;7.72;100.00;100888.28;5015268;28;20050;-56
2021/11/07 00:28:49;;;;;;;10.13;7.53;;;;;;;7.77;100.00;100886.81;5014048;28;20211;-55
2021/11/07 00:39:08;;;;;;;8.93;6.75;;;;;;;7.68;100.00;100877.09;5014075;28;20423;-57
2021/11/07 00:44:02;;;;;;;9.30;6.72;;;;;;;7.71;100.00;100858.50;5017132;28;20083;-58
2021/11/07 00:46:52;;;;;;;8.90;7.05;;;;;;;7.72;100.00;100848.38;5013643;28;20042;-53
2021/11/07 00:52:36;;;;;;;9.35;6.63;;;;;;;7.66;100.00;100837.94;5000093;28;20045;-58
2021/11/07 01:03:03;;;;;;;10.63;6.63;;;;;;;7.62;100.00;100805.47;5014822;28;20044;-56
2021/11/07 01:05:32;;;;;;;13.65;6.78;;;;;;;7.54;100.00;100799.25;5013366;28;20042;-56
2021/11/07 01:07:58;;;;;;;10.50;6.65;;;;;;;7.46;100.00;100809.13;5016077;28;20036;-57
2021/11/07 01:10:26;;;;;;;8.02;6.00;;;;;;;7.49;100.00;100793.97;5013187;28;20038;-57
2021/11/07 01:12:52;;;;;;;7.57;6.50;;;;;;;7.55;100.00;100781.44;5015146;28;20434;-58
2021/11/07 01:15:18;;;;;;;9.65;7.05;;;;;;;7.45;100.00;100783.59;5014036;28;20045;-58
2021/11/07 01:17:44;;;;;;;8.90;6.55;;;;;;;7.52;100.00;100772.81;5014207;28;20033;-57
2021/11/07 01:20:13;;;;;;;8.70;6.00;;;;;;;7.43;100.00;100754.63;5015196;28;20038;-60
2021/11/07 01:25:08;;;;;;;9.65;6.57;;;;;;;7.32;100.00;100760.16;5012480;28;20092;-58
2021/11/07 01:27:39;;;;;;;9.15;6.60;;;;;;;7.34;100.00;100762.75;5015310;28;20033;-58
2021/11/07 01:30:11;;;;;;;9.55;6.35;;;;;;;7.28;100.00;100748.09;5014170;28;20049;-58
2021/11/07 01:32:41;;;;;;;8.88;6.03;;;;;;;7.38;100.00;100744.25;5012587;28;20033;-58
2021/11/07 01:37:59;;;;;;;8.45;5.95;;;;;;;7.32;100.00;100731.28;5013101;28;20038;-57
2021/11/07 01:40:31;;;;;;;8.10;6.35;;;;;;;7.20;100.00;100729.09;5012317;28;20211;-56
2021/11/07 01:42:58;;;;;;;8.10;5.88;;;;;;;7.30;100.00;100727.78;5014883;28;20056;-57
2021/11/07 01:45:28;;;;;;;9.50;6.82;;;;;;;7.28;100.00;100719.22;5012911;28;20124;-59
2021/11/07 01:48:06;;;;;;;7.97;5.80;;;;;;;7.28;100.00;100711.59;5015981;28;20120;-58
2021/11/07 01:50:45;;;;;;;8.85;6.38;;;;;;;7.23;100.00;100693.56;5014646;28;20052;-59
2021/11/07 01:53:21;;;;;;;8.40;6.07;;;;;;;7.26;100.00;100685.19;5012620;28;20116;-60
2021/11/07 01:55:48;;;;;;;10.70;6.20;;;;;;;7.34;100.00;100676.16;5013253;28;20088;-60
2021/11/07 01:58:14;;;;;;;8.45;6.07;;;;;;;7.28;100.00;100678.47;5015394;28;20693;-55
2021/11/07 02:00:42;;;;;;;7.53;5.90;;;;;;;7.44;100.00;100664.63;5012371;28;20121;-56
2021/11/07 02:03:08;;;;;;;8.05;6.22;;;;;;;7.23;100.00;100652.81;5015105;28;20120;-58
2021/11/07 02:05:34;;;;;;;8.68;6.75;;;;;;;7.38;100.00;100643.22;5013190;28;20037;-57
2021/11/07 02:08:00;;;;;;;8.30;6.28;;;;;;;7.37;100.00;100661.88;5014551;28;20025;-56
2021/11/07 02:10:25;;;;;;;9.43;6.43;;;;;;;7.23;100.00;100659.59;5014726;28;20042;-60
2021/11/07 02:12:51;;;;;;;8.60;5.70;;;;;;;7.33;100.00;100656.59;5017170;28;20695;-59
2021/11/07 02:15:20;;;;;;;12.35;6.07;;;;;;;7.33;100.00;100660.00;5019052;28;20470;-59
2021/11/07 02:17:46;;;;;;;8.38;7.20;;;;;;;7.40;100.00;100650.94;5016297;28;20046;-57
2021/11/07 02:20:24;;;;;;;6.75;5.65;;;;;;;7.47;100.00;100647.78;5019009;28;20034;-59
2021/11/07 02:22:51;;;;;;;10.00;6.10;;;;;;;7.52;100.00;100637.75;5018174;28;20045;-54
2021/11/07 02:25:17;;;;;;;8.75;5.93;;;;;;;7.53;100.00;100642.91;5016453;28;20038;-58
2021/11/07 02:27:43;;;;;;;8.02;5.72;;;;;;;7.64;100.00;100633.13;5019196;28;20037;-57
2021/11/07 02:30:14;;;;;;;8.63;6.13;;;;;;;7.57;100.00;100626.06;5019304;28;20038;-57
2021/11/07 02:32:41;;;;;;;7.53;5.28;;;;;;;7.64;100.00;100616.16;5016994;28;20057;-57
2021/11/07 02:35:07;;;;;;;7.05;5.70;;;;;;;7.62;100.00;100622.88;5017222;28;20292;-56
2021/11/07 02:37:33;;;;;;;11.23;6.50;;;;;;;7.76;100.00;100614.84;5018411;28;20542;-54
2021/11/07 02:39:59;;;;;;;8.18;5.38;;;;;;;7.80;100.00;100616.69;5016406;28;20056;-59
2021/11/07 02:42:25;;;;;;;8.30;5.95;;;;;;;7.78;100.00;100603.03;5018549;28;20052;-60
2021/11/07 02:44:51;;;;;;;7.20;5.63;;;;;;;7.73;100.00;100605.44;5015471;28;20328;-58
2021/11/07 02:47:17;;;;;;;10.27;5.95;;;;;;;7.83;100.00;100601.53;5018841;28;20045;-54
2021/11/07 02:49:53;;;;;;;7.68;5.82;;;;;;;7.79;100.00;100585.25;5016345;28;20128;-59
2021/11/07 02:52:18;;;;;;;5.95;5.35;;;;;;;7.89;100.00;100573.69;5016464;28;20039;-59
2021/11/07 02:54:45;;;;;;;7.70;5.50;;;;;;;7.85;100.00;100576.94;5018111;28;20406;-58
2021/11/07 02:57:16;;;;;;;8.05;5.78;;;;;;;7.93;100.00;100559.38;5014748;28;20087;-59
2021/11/07 02:59:42;;;;;;;9.57;6.20;;;;;;;7.82;100.00;100557.31;5017785;28;20038;-57
2021/11/07 03:02:12;;;;;;;6.88;5.63;;;;;;;7.85;100.00;100547.22;5016449;28;20030;-57
2021/11/07 03:04:39;;;;;;;7.20;5.85;;;;;;;7.87;100.00;100539.63;5016204;28;20041;-59
2021/11/07 03:07:06;;;;;;;9.27;6.15;;;;;;;7.83;100.00;100541.22;5018480;28;20075;-59
2021/11/07 03:09:36;;;;;;;8.57;5.70;;;;;;;7.75;100.00;100539.22;5015094;28;20046;-57
2021/11/07 03:12:04;;;;;;;8.05;5.80;;;;;;;7.75;100.00;100534.97;5017996;28;20041;-57
2021/11/07 03:14:35;;;;;;;8.68;5.60;;;;;;;7.90;100.00;100526.97;5016243;28;20394;-55
2021/11/07 03:17:02;;;;;;;8.00;6.13;;;;;;;7.90;100.00;100527.88;5015712;28;20125;-58
2021/11/07 03:19:28;;;;;;;8.77;6.45;;;;;;;7.79;100.00;100525.75;5018308;28;20423;-55
2021/11/07 03:21:57;;;;;;;9.13;6.35;;;;;;;7.80;100.00;100518.16;5015086;28;20073;-59
2021/11/07 03:24:23;;;;;;;7.63;5.85;;;;;;;7.93;100.00;100519.44;5017505;28;20064;-56
2021/11/07 03:26:49;;;;;;;9.02;5.82;;;;;;;8.06;100.00;100513.94;5015715;28;20034;-56
2021/11/07 03:29:16;;;;;;;8.32;5.90;;;;;;;7.89;100.00;100503.16;5016307;28;20034;-56
2021/11/07 03:32:01;;;;;;;8.25;4.88;;;;;;;7.89;100.00;100500.63;5017055;28;20065;-57
2021/11/07 03:34:33;;;;;;;10.15;5.63;;;;;;;7.79;100.00;100495.16;5016091;28;20490;-57
2021/11/07 03:37:02;;;;;;;8.13;5.90;;;;;;;7.89;100.00;100485.31;5015037;28;20127;-60
2021/11/07 03:39:31;;;;;;;8.82;6.05;;;;;;;7.88;100.00;100491.25;5018011;28;20054;-60
2021/11/07 03:42:11;;;;;;;7.53;6.05;;;;;;;7.78;100.00;100485.78;5015361;28;20460;-57
2021/11/07 03:44:38;;;;;;;9.02;6.00;;;;;;;7.76;100.00;100487.41;5014452;28;20103;-60
2021/11/07 03:47:05;;;;;;;8.40;5.63;;;;;;;7.73;100.00;100470.34;5018048;28;20032;-57
2021/11/07 03:49:31;;;;;;;6.85;5.65;;;;;;;7.74;100.00;100469.53;5014708;28;20030;-57
2021/11/07 03:51:57;;;;;;;8.77;6.50;;;;;;;7.70;100.00;100449.84;5016614;28;20143;-58
2021/11/07 03:54:25;;;;;;;7.75;5.75;;;;;;;7.77;100.00;100440.75;5015554;28;20088;-59
2021/11/07 03:56:50;;;;;;;9.77;6.03;;;;;;;7.74;100.00;100443.19;5015395;28;20041;-57
2021/11/07 03:59:16;;;;;;;8.50;6.35;;;;;;;7.75;100.00;100443.22;5016701;28;20394;-56
2021/11/07 04:01:43;;;;;;;7.47;5.38;;;;;;;7.66;100.00;100433.56;5014365;28;20046;-55
2021/11/07 04:04:09;;;;;;;7.93;6.20;;;;;;;7.79;100.00;100428.91;5017508;28;20401;-59
2021/11/07 04:06:36;;;;;;;9.82;5.78;;;;;;;7.77;100.00;100443.28;5014419;28;20059;-58
2021/11/07 04:09:04;;;;;;;8.23;5.68;;;;;;;7.66;100.00;100435.28;5016472;28;20344;-60
2021/11/07 04:11:29;;;;;;;8.43;5.82;;;;;;;7.72;100.00;100438.03;5015731;28;20538;-59
2021/11/07 04:13:55;;;;;;;9.20;6.40;;;;;;;7.79;100.00;100427.22;5029886;28;20129;-60
2021/11/07 04:16:21;;;;;;;11.13;6.07;;;;;;;7.75;100.00;100427.06;5016464;28;20060;-58
2021/11/07 04:18:46;;;;;;;7.10;5.30;;;;;;;7.68;100.00;100417.50;5014457;28;20164;-57
2021/11/07 04:21:14;;;;;;;9.55;6.05;;;;;;;7.78;100.00;100411.88;5017053;28;20034;-55
2021/11/07 04:23:40;;;;;;;12.38;7.75;;;;;;;7.67;100.00;100414.06;5017370;28;20183;-59
2021/11/07 04:26:06;;;;;;;14.48;7.72;;;;;;;7.67;100.00;100414.06;5014380;28;20112;-58
2021/11/07 04:28:32;;;;;;;9.45;6.78;;;;;;;7.66;100.00;100414.88;5015812;28;20167;-56
2021/11/07 04:30:58;;;;;;;8.65;6.30;;;;;;;7.57;100.00;100417.13;5015325;28;20108;-57
2021/11/07 04:33:25;;;;;;;9.98;6.60;;;;;;;7.56;100.00;100417.94;5014130;28;20108;-55
2021/11/07 04:35:51;;;;;;;10.32;7.43;;;;;;;7.47;100.00;100398.13;5015874;28;20074;-57
2021/11/07 04:38:17;;;;;;;11.73;6.57;;;;;;;7.14;100.00;100406.34;5013537;28;20414;-59
2021/11/07 04:40:44;;;;;;;9.38;7.03;;;;;;;6.96;100.00;100398.06;5016663;28;20185;-58
2021/11/07 04:43:10;;;;;;;11.15;7.63;;;;;;;6.93;100.00;100402.19;5013526;28;20091;-59
2021/11/07 04:45:36;;;;;;;14.48;8.18;;;;;;;6.71;100.00;100377.66;5015565;28;20471;-60
2021/11/07 04:48:03;;;;;;;13.38;8.25;;;;;;;6.84;100.00;100373.06;5014625;28;20041;-57
2021/11/07 04:50:36;;;;;;;9.68;7.57;;;;;;;6.83;100.00;100368.75;5014360;28;20520;-56
2021/11/07 04:53:04;;;;;;;10.25;7.07;;;;;;;6.72;100.00;100367.53;5016306;28;20486;-55
2021/11/07 04:55:33;;;;;;;9.77;7.47;;;;;;;6.77;100.00;100365.16;5016441;28;20025;-58
2021/11/07 04:57:58;;;;;;;10.27;6.68;;;;;;;6.69;100.00;100372.50;5014042;28;20034;-58
2021/11/07 05:00:24;;;;;;;11.27;7.18;;;;;;;6.71;100.00;100358.16;5014803;28;20413;-58
2021/11/07 05:02:51;;;;;;;14.13;7.78;;;;;;;6.69;100.00;100357.22;5014810;28;20382;-60
2021/11/07 05:05:18;;;;;;;12.07;7.82;;;;;;;6.68;100.00;100354.63;5013918;28;20038;-60
2021/11/07 05:07:44;;;;;;;10.77;7.78;;;;;;;6.70;100.00;100356.44;5016676;28;20037;-60
2021/11/07 05:10:10;;;;;;;8.82;7.05;;;;;;;6.66;100.00;100351.19;5012993;28;20103;-60
2021/11/07 05:12:36;;;;;;;10.35;7.53;;;;;;;6.76;100.00;100341.38;5016783;28;20090;-58
2021/11/07 05:15:02;;;;;;;15.32;7.40;;;;;;;6.77;100.00;100344.78;5013734;28;20441;-57
2021/11/07 05:17:28;;;;;;;13.70;7.57;;;;;;;6.71;100.00;100330.19;5015271;28;20096;-56
2021/11/07 05:19:53;;;;;;;11.45;7.38;;;;;;;6.84;100.00;100329.81;5014841;28;20042;-54
2021/11/07 05:22:19;;;;;;;8.68;6.47;;;;;;;6.83;100.00;100333.13;5014184;28;20458;-57
2021/11/07 05:24:45;;;;;;;9.57;6.28;;;;;;;6.91;100.00;100330.88;5015294;28;20064;-58
2021/11/07 05:27:11;;;;;;;7.93;6.25;;;;;;;6.92;100.00;100330.03;5012405;28;20036;-56
2021/11/07 05:29:37;;;;;;;9.13;6.22;;;;;;;7.05;100.00;100326.25;5015185;28;20056;-57
2021/11/07 05:32:04;;;;;;;8.50;6.60;;;;;;;7.06;100.00;100318.66;5012327;28;20041;-54
2021/11/07 05:34:31;;;;;;;10.38;6.53;;;;;;;7.14;100.00;100329.09;5014663;28;20429;-57
2021/11/07 05:36:56;;;;;;;9.10;7.38;;;;;;;7.16;100.00;100322.38;5012849;28;20033;-59
2021/11/07 05:39:23;;;;;;;6.65;5.85;;;;;;;7.00;100.00;100318.44;5013426;28;20505;-58
2021/11/07 05:41:48;;;;;;;9.70;6.47;;;;;;;7.12;100.00;100311.25;5013838;28;20529;-58
2021/11/07 05:44:14;;;;;;;8.02;6.32;;;;;;;7.11;100.00;100313.72;5012073;28;20034;-58
2021/11/07 05:46:41;;;;;;;8.82;6.35;;;;;;;7.20;100.00;100311.47;5016989;28;20092;-56
2021/11/07 05:49:07;;;;;;;8.48;5.63;;;;;;;7.17;100.00;100306.31;5014874;28;20048;-56
2021/11/07 05:51:35;;;;;;;8.02;5.80;;;;;;;7.20;100.00;100308.91;5018523;28;20041;-56
2021/11/07 05:54:01;;;;;;;7.63;5.50;;;;;;;7.20;100.00;100313.16;5015991;28;20041;-59
2021/11/07 05:56:27;;;;;;;7.70;5.47;;;;;;;7.27;100.00;100302.38;5017574;28;20048;-59
2021/11/07 05:58:52;;;;;;;7.30;5.35;;;;;;;7.28;100.00;100304.97;5017045;28;20445;-57
2021/11/07 06:01:18;;;;;;;6.90;5.20;;;;;;;7.34;100.00;100299.19;5015906;28;20026;-58
2021/11/07 06:03:44;;;;;;;7.53;4.95;;;;;;;7.27;100.00;100295.59;5017675;28;20065;-60
2021/11/07 06:06:09;;;;;;;8.85;5.70;;;;;;;7.44;100.00;100297.78;5015216;28;20133;-60
2021/11/07 06:08:35;;;;;;;7.90;5.65;;;;;;;7.44;100.00;100300.34;5018460;28;20116;-59
2021/11/07 06:11:01;;;;;;;9.77;5.88;;;;;;;7.45;100.00;100300.41;5015237;28;20409;-60
2021/11/07 06:13:26;;;;;;;6.40;4.95;;;;;;;7.40;100.00;100292.63;5017539;28;20451;-60
2021/11/07 06:15:52;;;;;;;6.93;4.60;;;;;;;7.36;100.00;100292.47;5015765;28;20045;-60
2021/11/07 06:18:18;;;;;;;7.72;5.20;;;;;;;7.45;100.00;100290.22;5016778;28;20041;-58
2021/11/07 06:20:44;;;;;;;5.78;4.88;;;;;;;7.41;100.00;100288.41;5016901;28;20041;-59
2021/11/07 06:23:11;;;;;;;7.43;5.03;;;;;;;7.52;100.00;100288.72;5016176;28;20040;-59
2021/11/07 06:25:37;;;;;;;7.47;4.53;;;;;;;7.54;100.00;100289.66;4972727;28;1339569;-58
2021/11/07 06:28:04;;;;;;;7.38;5.53;;;;;;;7.51;100.00;100282.75;5016683;28;20026;-60
2021/11/07 06:30:30;;;;;;;5.45;4.70;;;;;;;7.62;100.00;100273.75;5019321;28;20564;-56
2021/11/07 06:32:56;;;;;;;7.75;5.03;;;;;;;7.63;100.00;100272.09;5016943;28;20069;-56
2021/11/07 06:35:22;;;;;;;8.13;4.80;;;;;;;7.59;100.00;100255.84;5017936;28;20091;-58
2021/11/07 06:37:48;;;;;;;6.47;5.40;;;;;;;7.72;100.00;100266.41;5017640;28;20718;-57
2021/11/07 06:40:14;;;;;;;5.93;5.00;;;;;;;7.68;100.00;100272.25;5016864;28;20030;-60
2021/11/07 06:42:40;;;;;;;6.07;4.22;;;;;;;7.65;100.00;100270.47;5018608;28;20433;-56
2021/11/07 06:45:07;;;;;;;7.97;4.72;;;;;;;7.61;100.00;100274.59;5015977;28;20030;-54
2021/11/07 06:47:34;;;;;;;7.82;4.82;;;;;;;7.77;100.00;100270.84;5015759;28;20042;-58
2021/11/07 06:49:59;;;;;;;6.97;4.75;;;;;;;7.76;100.00;100263.97;5018522;28;20037;-60
2021/11/07 06:52:25;;;;;;;6.63;4.80;;;;;;;7.76;100.00;100265.69;5016578;28;20044;-58
2021/11/07 06:54:53;;;;;;;6.65;4.68;;;;;;;7.83;100.00;100265.06;5017280;28;20041;-60
2021/11/07 06:57:19;;;;;;;6.68;4.45;;;;;;;7.77;100.00;100269.97;5016982;28;20034;-60
2021/11/07 06:59:46;;;;;;;7.28;4.65;;;;;;;7.81;100.00;100262.47;5016199;28;20469;-59
2021/11/07 07:02:12;;;;;;;5.47;4.60;;;;;;;7.92;100.00;100260.22;5018557;28;20120;-59
2021/11/07 07:04:38;;;;;;;7.05;4.75;;;;;;;7.88;100.00;100268.59;5015012;28;20033;-59
2021/11/07 07:07:04;;;;;;;6.47;4.72;;;;;;;7.96;100.00;100264.59;5018525;28;20037;-60
2021/11/07 07:09:40;;;;;;;6.68;4.57;;;;;;;8.05;100.00;100262.31;5015916;28;20104;-58
2021/11/07 07:12:15;;;;;;;6.38;4.60;;;;;;;8.05;100.00;100271.66;5015943;28;20041;-56
2021/11/07 07:15:05;;;;;;;5.77;4.87;;;;;;;8.08;100.00;100264.06;5015203;28;20049;-59
2021/11/07 07:17:43;;;;;;;6.97;4.50;;;;;;;8.04;100.00;100259.69;5015307;28;20419;-59
2021/11/07 07:30:27;;;;;;;5.90;4.90;;;;;;;8.06;100.00;100260.63;5016299;28;20041;-61
2021/11/07 07:32:57;;;;;;;6.05;4.15;;;;;;;7.99;100.00;100263.81;5015407;28;20038;-60
2021/11/07 07:35:26;;;;;;;9.32;5.20;;;;;;;8.06;100.00;100252.97;5015341;28;20030;-60
2021/11/07 07:37:53;;;;;;;6.95;4.90;;;;;;;7.97;100.00;100253.56;5017699;28;20402;-59
2021/11/07 07:40:19;;;;;;;7.95;4.47;;;;;;;7.98;100.00;100252.75;5014532;28;20168;-60
2021/11/07 07:42:44;;;;;;;6.40;4.57;;;;;;;7.93;100.00;100243.25;5016974;28;20064;-61
2021/11/07 07:45:10;;;;;;;6.15;5.15;;;;;;;7.91;100.00;100256.81;5015209;28;20424;-57
2021/11/07 07:47:36;;;;;;;6.13;4.93;;;;;;;7.95;100.00;100255.22;5016131;28;20504;-60
2021/11/07 07:50:03;;;;;;;7.20;4.65;;;;;;;8.01;100.00;100255.41;5015691;28;20034;-59
2021/11/07 07:52:35;;;;;;;7.88;4.90;;;;;;;7.94;100.00;100250.06;5017035;28;20483;-60
2021/11/07 07:55:04;;;;;;;7.55;5.70;;;;;;;8.05;100.00;100239.38;5012751;28;20517;-61
2021/11/07 07:57:30;;;;;;;6.43;4.78;;;;;;;8.06;100.00;100232.56;5016534;28;20034;-59
2021/11/07 07:59:56;;;;;;;7.15;4.80;;;;;;;7.86;100.00;100235.44;5015264;28;20048;-61
2021/11/07 08:02:22;;;;;;;8.20;5.60;;;;;;;7.96;100.00;100230.59;5018648;28;20029;-58
2021/11/07 08:04:59;;;;;;;6.07;4.55;;;;;;;7.97;100.00;100222.97;5013257;28;20069;-60
2021/11/07 08:07:26;;;;;;;7.97;5.03;;;;;;;7.93;100.00;100231.34;5011287;28;20022;-61
2021/11/07 08:09:53;;;;;;;8.05;5.78;;;;;;;7.97;100.00;100211.91;5013581;28;20037;-59
2021/11/07 08:12:19;;;;;;;7.07;4.88;;;;;;;7.95;100.00;100217.00;5014345;28;20037;-59
2021/11/07 08:14:45;;;;;;;6.35;5.38;;;;;;;8.10;100.00;100217.41;5016041;28;20048;-58
2021/11/07 08:17:10;;;;;;;6.53;4.82;;;;;;;8.14;100.00;100226.88;5024703;28;20544;-61
2021/11/07 08:19:36;;;;;;;7.18;6.00;;;;;;;8.16;100.00;100224.34;5023712;28;20061;-61
2021/11/07 08:22:02;;;;;;;8.60;5.15;;;;;;;8.17;100.00;100232.03;5024028;28;20044;-58
2021/11/07 08:24:27;;;;;;;8.38;4.95;;;;;;;8.28;100.00;100229.81;5020530;28;20218;-59
2021/11/07 08:26:53;;;;;;;6.85;5.13;;;;;;;8.28;100.00;100229.81;5014007;28;20068;-61
2021/11/07 08:29:19;;;;;;;7.15;5.43;;;;;;;8.40;100.00;100240.34;5015803;28;20492;-59
2021/11/07 08:31:49;;;;;;;7.40;5.32;;;;;;;8.47;100.00;100231.19;5016727;28;20037;-61
2021/11/07 08:34:15;;;;;;;6.20;4.72;;;;;;;8.47;100.00;100232.88;5018666;28;20506;-59
2021/11/07 08:42:04;;;;;;;5.75;4.53;;;;;;;8.51;100.00;100234.69;5006180;28;20038;-62
2021/11/07 09:01:15;;;;;;;7.53;4.80;;;;;;;8.80;100.00;100210.78;5019879;28;20048;-60
2021/11/07 09:03:48;;;;;;;6.88;4.63;;;;;;;8.91;100.00;100221.25;5020357;28;20049;-60
2021/11/07 09:08:49;;;;;;;4.97;3.75;;;;;;;8.98;100.00;100212.06;5020163;28;20052;-61
2021/11/07 09:11:17;;;;;;;6.75;4.22;;;;;;;9.04;100.00;100209.66;5014829;28;20367;-61
2021/11/07 09:13:43;;;;;;;5.55;4.20;;;;;;;8.98;100.00;100215.47;5014441;28;20042;-61
2021/11/07 09:16:11;;;;;;;9.00;4.70;;;;;;;9.09;100.00;100211.47;5016424;28;20087;-61
2021/11/07 09:18:37;;;;;;;6.80;4.20;;;;;;;9.08;100.00;100204.66;5022612;28;20124;-59
2021/11/07 09:21:10;;;;;;;7.85;4.55;;;;;;;9.12;100.00;100213.25;5014925;28;20120;-61
2021/11/07 09:23:50;;;;;;;7.65;4.68;;;;;;;9.18;100.00;100214.25;5013784;28;20079;-61
2021/11/07 09:36:29;;;;;;;6.60;4.32;;;;;;;9.41;100.00;100186.69;5019015;28;20058;-60
2021/11/07 09:39:08;;;;;;;5.05;3.95;;;;;;;9.56;100.00;100186.13;5016408;28;20025;-59
2021/11/07 09:44:19;;;;;;;5.18;4.20;;;;;;;9.75;100.00;100182.28;5015525;28;20117;-59
2021/11/07 09:46:52;;;;;;;7.35;4.45;;;;;;;9.85;100.00;100185.91;5013770;28;20038;-61
2021/11/07 09:49:33;;;;;;;6.97;3.85;;;;;;;9.79;100.00;100178.09;5016519;28;20137;-61
2021/11/07 09:52:14;;;;;;;4.35;3.70;;;;;;;9.91;100.00;100186.88;5016235;28;20044;-60
2021/11/07 09:54:46;;;;;;;4.78;3.50;;;;;;;9.91;100.00;100174.09;5019048;28;20550;-59
2021/11/07 09:57:16;;;;;;;6.60;3.22;;;;;;;9.83;100.00;100172.22;5014634;28;20029;-60
2021/11/07 09:59:42;;;;;;;8.15;3.42;;;;;;;9.88;100.00;100193.63;5014389;28;20566;-60
2021/11/07 10:02:08;;;;;;;6.80;3.72;;;;;;;9.88;100.00;100178.28;5021409;28;20053;-59
2021/11/07 10:04:38;;;;;;;3.85;2.85;;;;;;;9.66;100.00;100164.22;5016103;28;20672;-59
2021/11/07 10:07:22;;;;;;;6.05;3.58;;;;;;;9.78;100.00;100171.25;5022994;28;20160;-58
2021/11/07 10:10:00;;;;;;;4.95;3.80;;;;;;;9.66;100.00;100175.31;5019108;28;20357;-55
2021/11/07 10:12:35;;;;;;;3.88;2.97;;;;;;;9.61;100.00;100161.56;5017742;28;20042;-59
2021/11/07 10:15:04;;;;;;;4.72;3.42;;;;;;;9.66;100.00;100159.09;5016039;28;20037;-57
2021/11/07 10:23:05;;;;;;;6.35;3.28;;;;;;;9.57;100.00;100143.59;5015520;28;20121;-56
2021/11/07 10:25:35;;;;;;;5.85;3.03;;;;;;;9.79;100.00;100162.75;5015328;28;20458;-62
2021/11/07 10:28:12;;;;;;;4.30;2.35;;;;;;;9.79;100.00;100170.41;5018289;28;20041;-60
2021/11/07 10:30:44;;;;;;;5.55;3.13;;;;;;;9.72;100.00;100164.34;5015082;28;20095;-57
2021/11/07 10:33:24;;;;;;;7.45;3.10;;;;;;;9.75;100.00;100161.81;5024532;28;20042;-58
2021/11/07 10:45:15;;;;;;;5.57;2.67;;;;;;;10.22;100.00;100164.47;5019375;28;20413;-60
2021/11/07 10:52:38;;;;;;;5.03;3.58;;;;;;;10.31;100.00;100164.66;5023898;28;20099;-61
2021/11/07 10:55:16;;;;;;;3.47;2.75;;;;;;;10.17;100.00;100164.38;5020965;28;20117;-60
2021/11/07 10:57:49;;;;;;;9.48;4.20;;;;;;;10.01;100.00;100164.06;5023472;28;20041;-61
2021/11/07 11:00:20;;;;;;;9.82;8.32;;;;;;;9.82;100.00;100166.25;5024512;28;20127;-59
2021/11/07 11:02:59;;;;;;;5.47;4.20;;;;;;;9.64;100.00;100150.53;5025830;28;20042;-60
2021/11/07 11:05:40;;;;;;;6.45;4.65;;;;;;;9.67;100.00;100155.72;5025453;28;20049;-60
2021/11/07 11:08:22;;;;;;;4.43;3.85;;;;;;;9.64;100.00;100145.41;5023887;28;20498;-61
2021/11/07 11:11:08;;;;;;;5.35;4.38;;;;;;;9.58;100.00;100133.38;5018531;28;20053;-60
2021/11/07 11:21:56;;;;;;;6.03;4.57;;;;;;;9.58;100.00;100129.97;5023727;28;20501;-59
2021/11/07 11:32:01;;;;;;;6.88;3.90;;;;;;;10.15;100.00;100132.78;5025878;28;20033;-59
2021/11/07 11:34:36;;;;;;;5.78;4.40;;;;;;;9.94;100.00;100132.38;5024496;28;20786;-54
2021/11/07 11:37:11;;;;;;;6.68;5.03;;;;;;;9.72;100.00;100130.25;5019629;28;20061;-59
2021/11/07 11:39:45;;;;;;;9.65;4.80;;;;;;;9.70;100.00;100113.16;5014826;28;20118;-59
2021/11/07 11:42:18;;;;;;;6.38;5.63;;;;;;;9.77;100.00;100115.84;5025088;28;20037;-58
2021/11/07 11:44:46;;;;;;;13.10;5.38;;;;;;;9.88;100.00;100111.78;5024132;28;20120;-60
2021/11/07 12:06:36;;;;;;;6.22;2.78;;;;;;;9.72;100.00;100081.66;5017397;28;20357;-60
2021/11/07 12:09:31;;;;;;;4.18;3.15;;;;;;;9.71;100.00;100075.69;5019069;28;20064;-61
2021/11/07 12:14:46;;;;;;;4.95;2.63;;;;;;;9.51;100.00;100105.09;5018862;28;20079;-59
2021/11/07 12:17:12;;;;;;;5.63;3.55;;;;;;;9.65;100.00;100112.19;5024569;28;20465;-61
2021/11/07 12:19:42;;;;;;;8.07;3.33;;;;;;;9.67;100.00;100122.47;5025265;28;20105;-59
2021/11/07 12:22:22;;;;;;;3.17;2.13;;;;;;;9.48;100.00;100121.25;5024606;28;20041;-59
2021/11/07 12:24:47;;;;;;;3.83;2.08;;;;;;;9.44;100.00;100119.44;5020125;28;20046;-60
2021/11/07 12:27:31;;;;;;;3.92;2.20;;;;;;;9.51;100.00;100120.44;5015867;28;20152;-60
2021/11/07 12:30:04;;;;;;;5.40;2.30;;;;;;;9.60;100.00;100111.25;5016706;28;20045;-56
2021/11/07 12:32:37;;;;;;;5.32;2.40;;;;;;;9.74;100.00;100108.97;5017258;28;20444;-58
2021/11/07 12:35:39;;;;;;;4.90;2.45;;;;;;;9.54;100.00;100106.03;5014089;28;20026;-56
2021/11/07 12:41:15;;;;;;;5.30;2.47;;;;;;;9.76;100.00;100107.31;5021670;28;20896;-58
2021/11/07 12:43:46;;;;;;;6.82;2.95;;;;;;;9.85;100.00;100106.63;5013330;28;20041;-60
2021/11/07 12:46:25;;;;;;;5.35;2.40;;;;;;;9.70;100.00;100097.81;5015812;28;20030;-60
2021/11/07 12:48:57;;;;;;;3.53;2.20;;;;;;;9.57;100.00;100095.03;5018520;28;20041;-60
2021/11/07 12:51:26;;;;;;;4.72;2.90;;;;;;;9.55;100.00;100101.78;5016519;28;20034;-59
2021/11/07 12:54:09;;;;;;;406.08;179.02;;;;;;;9.55;100.00;100094.09;5014386;28;20033;-59
2021/11/07 12:56:53;;;;;;;18.17;15.57;;;;;;;9.30;100.00;100101.28;5017247;28;20033;-61
2021/11/07 12:59:29;;;;;;;18.15;16.55;;;;;;;9.37;100.00;100105.66;5016642;28;20049;-60
2021/11/07 13:01:59;;;;;;;3.10;2.33;;;;;;;9.32;100.00;100097.03;5017901;28;20600;-60
2021/11/07 13:04:27;;;;;;;3.17;1.85;;;;;;;9.17;100.00;100095.03;5016422;28;20042;-61
2021/11/07 13:06:57;;;;;;;8.10;2.80;;;;;;;9.26;100.00;100098.63;5012826;28;20065;-59
2021/11/07 13:09:31;;;;;;;5.93;2.72;;;;;;;9.31;100.00;100102.13;5013102;28;20037;-59
2021/11/07 13:12:07;;;;;;;5.20;1.67;;;;;;;9.26;100.00;100094.38;5015077;28;20069;-57
2021/11/07 13:23:28;;;;;;;7.30;1.50;;;;;;;9.24;100.00;100090.03;5015708;28;20109;-60
2021/11/07 13:31:19;;;;;;;7.13;1.90;;;;;;;9.21;100.00;100090.84;5013728;28;20041;-60
2021/11/07 13:33:45;;;;;;;3.15;1.20;;;;;;;9.35;100.00;100098.81;5013316;28;20045;-61
2021/11/07 13:36:18;;;;;;;8.38;2.58;;;;;;;9.27;100.00;100085.00;5013975;28;20033;-60
2021/11/07 13:38:50;;;;;;;6.13;1.73;;;;;;;9.47;100.00;100091.38;5015819;28;20612;-60
2021/11/07 13:41:18;;;;;;;5.32;1.48;;;;;;;10.00;99.18;100096.69;5015987;28;20083;-60
2021/11/07 13:43:56;;;;;;;6.88;3.42;;;;;;;10.58;95.78;100105.38;5013936;28;20042;-59
2021/11/07 13:46:21;;;;;;;6.80;1.40;;;;;;;10.60;93.67;100120.78;5011525;28;20034;-59
2021/11/07 13:49:01;;;;;;;9.10;1.80;;;;;;;10.80;91.82;100113.41;5012900;28;20409;-59
2021/11/07 13:51:27;;;;;;;8.07;1.95;;;;;;;10.12;96.16;100111.38;5013852;28;20045;-59
2021/11/07 13:53:57;;;;;;;6.43;1.95;;;;;;;9.99;96.35;100112.03;5015104;28;20026;-59
2021/11/07 13:56:23;;;;;;;11.30;3.72;;;;;;;9.59;98.72;100113.78;5016012;28;20126;-60
2021/11/07 13:58:49;;;;;;;9.32;2.83;;;;;;;9.67;99.25;100113.13;5011195;28;20394;-61
2021/11/07 14:01:16;;;;;;;7.43;1.92;;;;;;;9.51;98.97;100105.94;5013266;28;20048;-60
2021/11/07 14:03:43;;;;;;;6.50;2.15;;;;;;;9.32;100.00;100109.81;5012039;28;20370;-58
2021/11/07 14:08:44;;;;;;;3.35;1.55;;;;;;;9.45;100.00;100108.38;5017000;28;20037;-57
2021/11/07 14:11:11;;;;;;;5.95;2.15;;;;;;;9.22;100.00;100099.38;5018205;28;20493;-59